Time;durP1;ratioP1;P1;durP2;ratioP2;P2;SDS_P1;SDS_P2;PMS_P1;PMS_P2;Temp;Humidity;BMP_temperature;BMP_pressure;BME280_temperature;BME280_humidity;BME280_pressure;Samples;Min_cycle;Max_cycle;Signal;HPM_P1;HPM_P2
2021/03/15 00:04:51;;;;;;;2.70;1.50;;;;;;;1.54;70.85;97092.31;10499970;28;20036;-74
2021/03/15 00:10:12;;;;;;;3.63;1.35;;;;;;;1.57;72.82;97098.75;10499095;28;20055;-74
2021/03/15 00:15:32;;;;;;;4.72;1.35;;;;;;;1.57;72.12;97096.72;10498771;28;20372;-77
2021/03/15 00:20:52;;;;;;;4.30;2.00;;;;;;;1.61;71.96;97108.09;10498589;28;20429;-75
2021/03/15 00:26:13;;;;;;;4.93;1.67;;;;;;;1.64;72.16;97112.50;10498310;28;20063;-75
2021/03/15 00:31:33;;;;;;;4.95;1.90;;;;;;;1.65;72.05;97107.75;10495519;28;20555;-76
2021/03/15 00:36:54;;;;;;;3.08;1.50;;;;;;;1.63;72.43;97113.75;10483772;28;20051;-76
2021/03/15 00:42:14;;;;;;;3.22;1.80;;;;;;;1.59;72.93;97093.41;10498115;28;20040;-76
2021/03/15 00:47:34;;;;;;;4.22;1.60;;;;;;;1.58;72.15;97092.69;10497454;28;20399;-75
2021/03/15 00:52:54;;;;;;;3.00;1.50;;;;;;;1.55;72.40;97087.56;10483461;28;20051;-77
2021/03/15 00:58:14;;;;;;;5.43;2.00;;;;;;;1.52;72.71;97094.16;10497246;28;20043;-75
2021/03/15 01:03:34;;;;;;;5.03;2.05;;;;;;;1.47;72.92;97093.06;10496853;28;20044;-76
2021/03/15 01:08:56;;;;;;;4.13;2.33;;;;;;;1.47;73.21;97084.81;10525095;28;20048;-75
2021/03/15 01:14:26;;;;;;;3.92;1.77;;;;;;;1.51;73.71;97087.19;10513457;28;20096;-74
2021/03/15 01:19:57;;;;;;;3.28;1.88;;;;;;;1.53;74.04;97073.59;10499626;28;20040;-76
2021/03/15 01:25:18;;;;;;;4.72;2.28;;;;;;;1.58;73.94;97075.44;10496493;28;20055;-75
2021/03/15 01:30:39;;;;;;;3.53;1.77;;;;;;;1.61;73.29;97077.09;10496461;28;20042;-76
2021/03/15 01:35:58;;;;;;;2.55;1.50;;;;;;;1.54;73.19;97066.81;10496219;28;20394;-75
2021/03/15 01:41:18;;;;;;;2.78;1.80;;;;;;;1.47;73.39;97059.31;10495968;28;20036;-75
2021/03/15 01:46:38;;;;;;;4.63;1.60;;;;;;;1.35;73.50;97053.41;10497132;28;20044;-76
2021/03/15 01:51:58;;;;;;;3.22;1.75;;;;;;;1.35;74.49;97048.69;10504475;28;20548;-76
2021/03/15 01:57:18;;;;;;;3.33;2.03;;;;;;;1.43;74.51;97054.16;10504249;28;20119;-75
2021/03/15 02:02:40;;;;;;;3.15;1.75;;;;;;;1.49;73.88;97048.50;10503525;28;20449;-75
2021/03/15 02:08:00;;;;;;;4.25;2.00;;;;;;;1.46;74.03;97050.34;10500918;28;20059;-75
2021/03/15 02:13:39;;;;;;;3.35;1.85;;;;;;;1.35;73.99;97036.91;10503357;28;20040;-76
2021/03/15 02:19:45;;;;;;;3.75;1.85;;;;;;;1.28;74.22;97027.41;10503785;28;20051;-76
2021/03/15 02:26:02;;;;;;;3.03;2.13;;;;;;;1.17;74.33;97021.53;10516796;28;20449;-75
2021/03/15 02:31:27;;;;;;;3.85;2.08;;;;;;;1.09;73.77;97016.75;10530667;28;20044;-76
2021/03/15 02:36:48;;;;;;;3.45;2.10;;;;;;;1.04;74.64;97019.69;10516754;28;20431;-76
2021/03/15 02:42:17;;;;;;;3.97;2.05;;;;;;;1.04;74.67;97016.94;10502208;28;20036;-77
2021/03/15 02:47:38;;;;;;;3.78;2.08;;;;;;;1.16;74.61;97018.06;10516401;28;20115;-75
2021/03/15 02:52:58;;;;;;;3.70;2.00;;;;;;;1.32;74.42;97022.25;10502003;28;20040;-76
2021/03/15 02:58:18;;;;;;;3.78;1.83;;;;;;;1.44;74.21;97025.38;10501124;28;20051;-75
2021/03/15 03:03:38;;;;;;;5.50;2.60;;;;;;;1.52;74.10;97022.63;10502182;28;20048;-76
2021/03/15 03:08:59;;;;;;;3.92;2.20;;;;;;;1.57;73.74;97024.47;10501115;28;20044;-76
2021/03/15 03:14:19;;;;;;;3.67;2.17;;;;;;;1.64;73.31;97031.97;10501070;28;20043;-75
2021/03/15 03:19:39;;;;;;;5.15;2.40;;;;;;;1.66;73.68;97016.38;10501086;28;20043;-75
2021/03/15 03:24:58;;;;;;;3.95;2.33;;;;;;;1.78;73.61;97016.72;10514265;28;20079;-76
2021/03/15 03:30:20;;;;;;;3.63;2.10;;;;;;;1.97;73.16;97021.84;10500358;28;20048;-75
2021/03/15 03:35:41;;;;;;;5.07;2.40;;;;;;;2.10;73.06;97029.88;10500566;28;20448;-76
2021/03/15 03:41:01;;;;;;;4.10;3.00;;;;;;;2.14;72.87;97016.47;10500331;28;20494;-75
2021/03/15 03:46:21;;;;;;;5.65;2.55;;;;;;;2.11;73.02;97008.56;10513716;28;20036;-76
2021/03/15 03:51:46;;;;;;;4.28;2.72;;;;;;;2.00;73.04;97015.94;10485993;28;20036;-76
2021/03/15 03:57:10;;;;;;;;;;;;;;;1.94;73.60;97023.69;10514420;28;20044;-76
2021/03/15 04:02:29;;;;;;;3.17;2.28;;;;;;;1.95;73.75;97019.66;10513305;28;19920;-76
2021/03/15 04:07:55;;;;;;;3.72;2.20;;;;;;;1.98;73.47;97026.78;10498916;28;20051;-76
2021/03/15 04:13:19;;;;;;;3.00;2.13;;;;;;;2.06;73.71;97034.28;10526674;28;20040;-75
2021/03/15 04:18:44;;;;;;;3.22;2.25;;;;;;;2.08;73.23;97031.72;10499077;28;20040;-76
2021/03/15 04:24:05;;;;;;;4.97;2.72;;;;;;;2.04;73.56;97031.38;10512806;28;20036;-76
2021/03/15 04:29:26;;;;;;;4.25;2.60;;;;;;;2.08;72.95;97032.44;10511916;28;20082;-76
2021/03/15 04:34:46;;;;;;;4.00;2.80;;;;;;;2.12;73.22;97032.78;10512269;28;20478;-75
2021/03/15 04:40:07;;;;;;;5.57;2.92;;;;;;;2.25;73.03;97034.63;10483752;28;20059;-76
2021/03/15 04:45:35;;;;;;;3.28;2.53;;;;;;;2.35;72.56;97029.25;10525884;28;20040;-76
2021/03/15 04:51:02;;;;;;;4.30;3.10;;;;;;;2.40;72.70;97031.78;10511594;28;20383;-76
2021/03/15 04:56:23;;;;;;;3.97;2.92;;;;;;;2.40;72.46;97033.81;10525671;28;20063;-76
2021/03/15 05:01:42;;;;;;;4.93;3.40;;;;;;;2.39;72.31;97022.06;10497203;28;20044;-76
2021/03/15 05:07:03;;;;;;;4.03;3.35;;;;;;;2.43;72.91;97021.69;10497114;28;20048;-79
2021/03/15 05:12:22;;;;;;;4.25;3.40;;;;;;;2.45;72.60;97019.84;10525692;28;20044;-76
2021/03/15 05:17:42;;;;;;;4.90;3.50;;;;;;;2.54;72.55;97024.75;10497125;28;20127;-75
2021/03/15 05:23:03;;;;;;;4.70;3.45;;;;;;;2.61;72.58;97028.78;10496810;28;20048;-77
2021/03/15 05:28:23;;;;;;;4.15;3.33;;;;;;;2.61;72.24;97031.53;10496530;28;20185;-77
2021/03/15 05:33:42;;;;;;;4.85;3.80;;;;;;;2.58;72.47;97019.59;10497142;28;20101;-77
2021/03/15 05:39:03;;;;;;;4.65;3.63;;;;;;;2.67;72.18;97023.78;10496197;28;20077;-76
2021/03/15 05:45:01;;;;;;;7.07;4.68;;;;;;;2.70;72.47;97030.94;10496368;28;20051;-76
2021/03/15 05:51:00;;;;;;;5.22;3.90;;;;;;;2.75;71.72;97029.25;10510140;28;20039;-75
2021/03/15 05:56:23;;;;;;;5.55;4.15;;;;;;;2.80;72.35;97015.28;10524589;28;20051;-77
2021/03/15 06:02:16;;;;;;;4.60;3.80;;;;;;;2.87;71.54;97013.75;10494195;28;20127;-76
2021/03/15 06:07:36;;;;;;;6.25;4.47;;;;;;;2.90;71.75;97009.88;10498713;28;20482;-75
2021/03/15 06:13:11;;;;;;;8.48;5.60;;;;;;;2.85;71.94;97006.03;10482804;28;20048;-76
2021/03/15 06:18:31;;;;;;;6.70;4.97;;;;;;;2.88;71.97;97007.66;10511060;28;20040;-77
2021/03/15 06:23:53;;;;;;;6.07;4.60;;;;;;;3.15;71.77;97004.38;10496695;28;20056;-78
2021/03/15 06:29:13;;;;;;;7.47;4.65;;;;;;;3.41;71.33;97003.81;10517508;28;20050;-74
2021/03/15 06:34:34;;;;;;;5.55;4.50;;;;;;;3.78;71.02;97003.31;10512116;28;20039;-75
2021/03/15 06:39:54;;;;;;;5.80;4.72;;;;;;;4.46;69.83;97010.84;10517371;28;20044;-73
2021/03/15 06:45:14;;;;;;;5.80;5.20;;;;;;;5.57;68.07;97009.63;10538005;28;20489;-76
2021/03/15 06:50:35;;;;;;;9.57;5.47;;;;;;;6.95;67.15;97010.53;10534242;28;20152;-74
2021/03/15 06:55:55;;;;;;;5.88;4.50;;;;;;;7.80;63.86;97010.00;10529954;28;20135;-74
2021/03/15 07:01:25;;;;;;;5.10;4.60;;;;;;;9.82;60.85;97008.63;10515892;28;20123;-75
2021/03/15 07:06:45;;;;;;;4.88;4.43;;;;;;;12.76;58.78;97003.91;10503026;28;20123;-73
2021/03/15 07:12:05;;;;;;;5.53;4.15;;;;;;;12.95;53.15;97011.09;10515464;28;20042;-77
2021/03/15 07:17:26;;;;;;;5.50;4.35;;;;;;;14.45;57.77;97014.13;10498915;28;20052;-76
2021/03/15 07:22:47;;;;;;;5.68;3.88;;;;;;;13.19;54.34;97014.31;10503539;28;20551;-74
2021/03/15 07:28:07;;;;;;;6.80;4.32;;;;;;;11.26;53.03;97024.31;10543302;28;20459;-75
2021/03/15 07:33:27;;;;;;;7.20;3.60;;;;;;;10.18;54.17;97026.75;10543798;28;20070;-75
2021/03/15 07:38:48;;;;;;;6.43;4.60;;;;;;;9.87;52.86;97024.25;10529551;28;20040;-75
2021/03/15 07:44:35;;;;;;;9.25;4.95;;;;;;;10.58;53.08;97015.09;10542255;28;20050;-76
2021/03/15 07:49:58;;;;;;;5.10;4.22;;;;;;;13.56;46.57;97024.34;10556051;28;20040;-76
2021/03/15 07:55:31;;;;;;;4.83;3.30;;;;;;;15.32;48.15;97021.72;10555891;28;20544;-77
2021/03/15 08:00:52;;;;;;;6.10;3.67;;;;;;;15.06;42.92;97024.25;10541012;28;20040;-78
2021/03/15 08:06:12;;;;;;;6.57;3.15;;;;;;;16.42;41.73;97014.38;10554920;28;20046;-77
2021/03/15 08:11:32;;;;;;;4.55;2.78;;;;;;;21.13;39.83;97024.28;10526934;28;20044;-77
2021/03/15 08:16:54;;;;;;;5.43;2.30;;;;;;;28.23;32.02;97021.38;10548285;28;20039;-76
2021/03/15 08:22:23;;;;;;;2.72;1.95;;;;;;;35.24;18.37;97015.09;10498584;28;20036;-78
2021/03/15 08:27:43;;;;;;;2.45;1.55;;;;;;;36.23;13.68;97011.50;10525711;28;20105;-76
2021/03/15 08:33:03;;;;;;;4.75;1.75;;;;;;;34.98;13.46;97014.00;10525972;28;20058;-77
2021/03/15 08:38:30;;;;;;;2.40;1.40;;;;;;;40.82;10.81;96996.91;10526076;28;20051;-79
2021/03/15 08:43:51;;;;;;;2.40;1.02;;;;;;;41.70;8.40;96997.63;10525868;28;20489;-78
2021/03/15 08:49:20;;;;;;;5.15;1.17;;;;;;;37.08;8.19;96990.00;10525579;28;20051;-77
2021/03/15 08:54:47;;;;;;;3.30;1.40;;;;;;;32.27;11.07;96987.47;10513916;28;20044;-78
2021/03/15 09:00:33;;;;;;;2.60;1.05;;;;;;;39.38;8.19;96979.66;10525697;28;20051;-73
2021/03/15 09:05:53;;;;;;;2.40;1.00;;;;;;;37.18;7.75;96983.66;10510925;28;20048;-74
2021/03/15 09:11:42;;;;;;;2.23;0.80;;;;;;;41.32;7.47;96962.19;10507944;28;20043;-78
2021/03/15 09:17:24;;;;;;;3.83;1.08;;;;;;;40.99;6.60;96966.59;10539832;28;20047;-76
2021/03/15 09:22:44;;;;;;;3.08;0.90;;;;;;;37.54;7.62;96962.91;10566533;28;20105;-74
2021/03/15 09:28:03;;;;;;;2.13;1.00;;;;;;;35.68;9.00;96950.13;10468367;28;20064;-73
2021/03/15 09:33:23;;;;;;;3.13;1.35;;;;;;;33.43;9.52;96958.38;10435611;28;20400;-74
2021/03/15 09:38:43;;;;;;;3.17;1.13;;;;;;;31.50;11.06;96935.59;10439602;28;20059;-74
2021/03/15 09:44:04;;;;;;;2.80;0.90;;;;;;;32.06;9.86;96944.78;10440725;28;20048;-73
2021/03/15 09:49:40;;;;;;;3.63;1.10;;;;;;;27.87;13.19;96931.50;10481233;28;20041;-73
2021/03/15 09:55:05;;;;;;;1.65;0.60;;;;;;;21.98;15.45;96942.31;10480593;28;20040;-75
2021/03/15 10:00:27;;;;;;;2.10;0.82;;;;;;;20.27;18.04;96937.16;10451131;28;20052;-75
2021/03/15 10:06:06;;;;;;;2.50;0.70;;;;;;;19.30;19.75;96925.44;10481704;28;20044;-74
2021/03/15 10:11:44;;;;;;;2.33;0.73;;;;;;;20.87;19.19;96925.34;10479599;28;20044;-73
2021/03/15 10:17:23;;;;;;;1.73;0.90;;;;;;;16.96;22.63;96941.38;10469747;28;20052;-73
2021/03/15 10:23:19;;;;;;;3.95;0.93;;;;;;;16.08;23.44;96933.00;10445174;28;20396;-73
2021/03/15 10:28:40;;;;;;;5.32;0.95;;;;;;;15.64;23.57;96921.69;10497653;28;20052;-73
2021/03/15 10:34:00;;;;;;;3.28;1.00;;;;;;;13.46;27.52;96916.00;10531318;28;20059;-75
2021/03/15 10:39:28;;;;;;;5.70;1.33;;;;;;;13.80;27.68;96921.66;10531876;28;20044;-72
2021/03/15 10:44:49;;;;;;;2.35;1.00;;;;;;;15.06;27.60;96912.56;10516960;28;20043;-75
2021/03/15 10:50:30;;;;;;;2.88;1.27;;;;;;;14.87;28.34;96907.63;10545103;28;20040;-75
2021/03/15 10:56:16;;;;;;;3.25;1.25;;;;;;;14.76;28.02;96897.38;10532879;28;20044;-74
2021/03/15 11:01:40;;;;;;;2.67;1.10;;;;;;;13.85;28.94;96891.69;10506016;28;20044;-74
2021/03/15 11:07:29;;;;;;;2.00;1.15;;;;;;;13.69;28.76;96884.03;10487530;28;20461;-75
2021/03/15 11:12:54;;;;;;;2.58;1.20;;;;;;;14.43;28.78;96879.25;10475533;28;20041;-81
2021/03/15 11:18:19;;;;;;;2.53;1.27;;;;;;;13.76;29.82;96862.56;10474627;28;20399;-78
2021/03/15 11:23:43;;;;;;;;;;;;;;;14.69;29.03;96864.81;10504795;28;20505;-76
2021/03/15 11:29:16;;;;;;;3.63;1.90;;;;;;;14.82;29.08;96855.47;10449901;28;19920;-81
2021/03/15 11:34:48;;;;;;;3.90;1.67;;;;;;;14.63;29.37;96845.63;10446010;28;20048;-77
2021/03/15 11:40:11;;;;;;;2.78;1.10;;;;;;;14.94;28.78;96839.03;10432968;28;20041;-78
2021/03/15 11:45:40;;;;;;;3.15;1.20;;;;;;;15.08;28.31;96833.94;10434487;28;20392;-73
2021/03/15 11:51:00;;;;;;;2.63;1.00;;;;;;;15.00;28.36;96833.66;10422025;28;20057;-74
2021/03/15 11:56:32;;;;;;;7.97;1.13;;;;;;;15.32;28.53;96822.09;10452414;28;20053;-73
2021/03/15 12:01:53;;;;;;;6.25;1.58;;;;;;;15.60;28.13;96814.63;10453810;28;20045;-73
2021/03/15 12:07:13;;;;;;;3.53;1.27;;;;;;;15.79;28.06;96818.78;10455495;28;20036;-74
2021/03/15 12:12:40;;;;;;;3.58;1.70;;;;;;;15.74;26.92;96806.69;10473196;28;20041;-73
2021/03/15 12:18:03;;;;;;;4.38;1.20;;;;;;;14.80;27.71;96802.75;10439139;28;20044;-73
2021/03/15 12:23:23;;;;;;;4.63;1.40;;;;;;;14.77;27.83;96792.81;10443303;28;20048;-75
2021/03/15 12:28:43;;;;;;;2.88;1.30;;;;;;;14.53;27.95;96781.41;10447073;28;20411;-75
2021/03/15 12:34:15;;;;;;;3.03;1.50;;;;;;;14.71;28.09;96780.63;10442270;28;20040;-72
2021/03/15 12:39:35;;;;;;;2.97;1.50;;;;;;;14.82;28.14;96776.81;10438498;28;20399;-74
2021/03/15 12:45:02;;;;;;;4.47;1.30;;;;;;;15.81;27.65;96775.91;10439198;28;20049;-91
2021/03/15 12:50:28;;;;;;;3.40;1.40;;;;;;;15.93;27.20;96771.41;10431251;28;20090;-75
2021/03/15 12:55:52;;;;;;;2.78;1.00;;;;;;;14.31;27.35;96766.50;10431899;28;20044;-76
2021/03/15 13:01:14;;;;;;;2.65;1.40;;;;;;;13.08;29.96;96771.44;10445555;28;20114;-80
2021/03/15 13:06:39;;;;;;;3.47;1.33;;;;;;;12.04;30.81;96769.66;10448665;28;20044;-79
2021/03/15 13:12:05;;;;;;;3.33;1.35;;;;;;;11.11;31.90;96780.59;10436582;28;20403;-78
2021/03/15 13:17:40;;;;;;;3.88;1.80;;;;;;;10.68;33.79;96782.56;10455785;28;20789;-80
2021/03/15 13:23:05;;;;;;;5.07;1.45;;;;;;;10.70;36.75;96791.75;10423613;28;20063;-79
2021/03/15 13:28:42;;;;;;;3.60;1.83;;;;;;;10.56;37.67;96794.53;10457990;28;20454;-81
2021/03/15 13:34:02;;;;;;;3.95;1.65;;;;;;;10.39;38.19;96803.41;10460312;28;20032;-82
2021/03/15 13:39:24;;;;;;;2.70;1.17;;;;;;;9.93;38.60;96793.94;10460654;28;20132;-74
2021/03/15 13:44:44;;;;;;;2.28;0.98;;;;;;;9.80;39.40;96802.25;10472640;28;20502;-82
2021/03/15 13:50:05;;;;;;;3.17;0.90;;;;;;;9.64;38.68;96793.72;10474083;28;20091;-78
2021/03/15 13:55:26;;;;;;;2.80;1.15;;;;;;;9.90;37.92;96797.25;10474519;28;20588;-82
2021/03/15 14:00:46;;;;;;;3.40;0.90;;;;;;;10.21;38.67;96794.03;10490275;28;20036;-80
2021/03/15 14:06:24;;;;;;;3.25;0.70;;;;;;;10.20;39.79;96798.16;10497061;28;20471;-81
2021/03/15 14:11:44;;;;;;;1.90;0.93;;;;;;;10.00;40.65;96804.09;10488711;28;20035;-82
2021/03/15 14:17:04;;;;;;;7.35;1.10;;;;;;;9.82;41.95;96791.94;10473217;28;20088;-81
2021/03/15 14:22:24;;;;;;;2.35;1.30;;;;;;;9.67;41.79;96796.03;10477087;28;20062;-74
2021/03/15 14:27:52;;;;;;;4.00;1.38;;;;;;;9.48;42.06;96806.75;10533975;28;20048;-74
2021/03/15 14:33:13;;;;;;;3.22;1.33;;;;;;;9.27;43.30;96810.44;10531406;28;20114;-75
2021/03/15 14:38:39;;;;;;;2.97;1.27;;;;;;;9.06;43.30;96812.03;10559730;28;20054;-74
2021/03/15 14:43:59;;;;;;;4.80;2.30;;;;;;;8.86;45.36;96814.38;10544420;28;20064;-74
2021/03/15 14:49:34;;;;;;;2.63;1.83;;;;;;;8.71;44.98;96820.44;10509370;28;20436;-80
2021/03/15 14:55:06;;;;;;;3.80;1.60;;;;;;;8.48;47.02;96825.97;10532225;28;20115;-80
2021/03/15 15:00:26;;;;;;;3.65;1.60;;;;;;;8.51;46.71;96822.72;10516757;28;20063;-80
2021/03/15 15:05:46;;;;;;;3.05;1.60;;;;;;;8.48;45.77;96828.75;10529777;28;20036;-75
2021/03/15 15:11:05;;;;;;;3.90;1.77;;;;;;;8.29;46.13;96833.16;10530081;28;20093;-74
2021/03/15 15:16:27;;;;;;;2.60;1.80;;;;;;;7.96;51.29;96843.63;10530020;28;20097;-74
2021/03/15 15:21:49;;;;;;;2.65;1.42;;;;;;;7.00;53.09;96850.59;10541053;28;20048;-75
2021/03/15 15:27:13;;;;;;;5.60;1.77;;;;;;;6.62;50.80;96838.38;10506962;28;20051;-71
2021/03/15 15:32:33;;;;;;;2.13;1.27;;;;;;;6.67;51.05;96840.13;10543441;28;20036;-75
2021/03/15 15:37:53;;;;;;;2.72;1.75;;;;;;;6.97;50.97;96840.69;10551375;28;20047;-76
2021/03/15 15:43:13;;;;;;;3.03;1.50;;;;;;;7.29;51.45;96845.59;10500672;28;20097;-74
2021/03/15 15:48:33;;;;;;;2.70;1.88;;;;;;;7.50;52.09;96847.63;10500717;28;20380;-75
2021/03/15 15:53:53;;;;;;;3.33;1.95;;;;;;;7.73;53.15;96845.00;10528672;28;20452;-74
2021/03/15 15:59:14;;;;;;;3.00;1.80;;;;;;;7.89;52.49;96848.06;10514165;28;20043;-75
2021/03/15 16:04:34;;;;;;;2.63;1.48;;;;;;;7.99;54.30;96856.31;10499477;28;20040;-75
2021/03/15 16:09:54;;;;;;;2.33;1.42;;;;;;;7.70;54.05;96851.72;10499326;28;20055;-73
2021/03/15 16:15:14;;;;;;;2.85;1.20;;;;;;;7.36;53.57;96866.16;10511709;28;20435;-74
2021/03/15 16:20:35;;;;;;;3.10;1.50;;;;;;;7.09;56.04;96869.97;10540290;28;20478;-74
2021/03/15 16:25:54;;;;;;;1.88;1.23;;;;;;;6.73;56.12;96876.56;10527029;28;20044;-75
2021/03/15 16:31:18;;;;;;;2.47;1.10;;;;;;;6.65;56.33;96886.38;10568896;28;20040;-74
2021/03/15 16:36:38;;;;;;;1.20;0.57;;;;;;;6.48;56.36;96876.22;10554323;28;20405;-74
2021/03/15 16:41:58;;;;;;;0.73;0.50;;;;;;;6.53;56.43;96886.28;10526549;28;20493;-73
2021/03/15 16:47:18;;;;;;;0.50;0.30;;;;;;;6.75;56.49;96890.56;10537133;28;20467;-78
2021/03/15 16:52:39;;;;;;;0.68;0.50;;;;;;;6.90;56.55;96886.72;10541158;28;20420;-86
2021/03/15 16:57:59;;;;;;;0.73;0.40;;;;;;;6.57;56.49;96908.75;10526889;28;20051;-77
2021/03/15 17:03:19;;;;;;;0.88;0.40;;;;;;;6.12;57.23;96907.66;10503860;28;20048;-77
2021/03/15 17:08:39;;;;;;;0.98;0.50;;;;;;;5.68;58.10;96914.91;10525410;28;20044;-76
2021/03/15 17:13:59;;;;;;;1.55;0.80;;;;;;;5.33;58.62;96927.56;10522456;28;20050;-80
2021/03/15 17:19:19;;;;;;;1.48;0.70;;;;;;;5.02;58.76;96919.00;10553543;28;20399;-81
2021/03/15 17:24:39;;;;;;;1.65;0.88;;;;;;;4.76;59.69;96929.53;10539115;28;20119;-77
2021/03/15 17:30:00;;;;;;;3.42;1.50;;;;;;;4.52;60.03;96933.91;10524944;28;20059;-79
2021/03/15 17:35:20;;;;;;;3.50;2.17;;;;;;;4.35;60.60;96950.56;10538792;28;20050;-80
2021/03/15 17:46:32;;;;;;;3.75;2.03;;;;;;;4.05;61.91;96948.88;12160394;23;20046;-83
2021/03/15 17:51:52;;;;;;;6.68;4.95;;;;;;;3.89;62.36;96944.84;10150185;29;20055;-74
2021/03/15 17:57:14;;;;;;;4.20;2.70;;;;;;;3.76;62.66;96945.88;10161158;29;20080;-74
2021/03/15 18:02:34;;;;;;;3.85;3.03;;;;;;;3.66;62.83;96942.31;10173092;29;20476;-74
2021/03/15 18:07:54;;;;;;;4.07;2.95;;;;;;;3.57;62.83;96949.22;10160615;29;20048;-78
2021/03/15 18:13:14;;;;;;;4.63;2.22;;;;;;;3.50;63.75;96961.06;10161040;29;20444;-74
2021/03/15 18:18:33;;;;;;;3.40;2.22;;;;;;;3.42;64.29;96963.88;10179755;29;20036;-81
2021/03/15 18:23:54;;;;;;;3.42;2.40;;;;;;;3.39;65.25;96958.78;10147621;29;20659;-79
2021/03/15 18:29:14;;;;;;;4.22;2.30;;;;;;;3.36;64.36;96971.66;10137813;29;20055;-81
2021/03/15 18:35:04;;;;;;;3.47;2.38;;;;;;;3.34;64.70;96982.53;10149520;23;20028;31
2021/03/15 18:40:26;;;;;;;3.47;2.28;;;;;;;3.32;65.16;96973.34;10831049;23;20048;-87
2021/03/15 18:45:46;;;;;;;3.05;1.95;;;;;;;3.32;65.63;96985.13;10208896;29;20047;-85
2021/03/15 18:51:07;;;;;;;4.65;2.75;;;;;;;3.40;65.28;96979.53;10198504;29;20043;-85
2021/03/15 18:56:27;;;;;;;5.05;2.60;;;;;;;3.38;66.41;96982.16;11893301;23;20072;-86
2021/03/15 19:01:48;;;;;;;3.40;2.20;;;;;;;3.38;67.30;96980.13;11211022;23;20059;-85
2021/03/15 19:07:09;;;;;;;3.00;1.65;;;;;;;3.32;66.23;96981.63;10252521;28;20074;-81
2021/03/15 19:12:29;;;;;;;5.70;2.05;;;;;;;3.24;66.65;96973.41;10246415;29;20107;-87
2021/03/15 19:17:49;;;;;;;4.45;1.77;;;;;;;3.19;67.13;96966.13;10192743;29;20044;-77
2021/03/15 19:23:09;;;;;;;5.10;2.00;;;;;;;3.13;67.76;96963.56;10180141;29;20047;-77
2021/03/15 19:28:28;;;;;;;4.15;1.90;;;;;;;3.10;67.90;96975.00;10191922;29;20048;-78
2021/03/15 19:33:48;;;;;;;4.57;2.60;;;;;;;3.08;67.22;96970.03;10205039;29;20107;-77
2021/03/15 19:39:08;;;;;;;7.00;3.90;;;;;;;3.06;68.17;96980.91;10191335;29;20051;-77
2021/03/15 19:44:28;;;;;;;5.63;2.42;;;;;;;3.07;67.79;96979.59;10204547;29;20047;-76
2021/03/15 19:49:48;;;;;;;4.68;2.13;;;;;;;3.22;67.22;96986.31;10191572;29;20129;-77
2021/03/15 19:55:11;;;;;;;4.55;2.17;;;;;;;3.33;68.00;96974.81;10178306;29;20051;-77
2021/03/15 20:00:31;;;;;;;5.53;2.20;;;;;;;3.44;67.85;96991.63;10191581;29;20051;-78
2021/03/15 20:05:51;;;;;;;4.78;2.33;;;;;;;3.39;67.08;96989.13;10178009;29;20098;-78
2021/03/15 20:11:10;;;;;;;6.05;2.88;;;;;;;3.29;67.56;96996.56;10177703;29;20106;-78
2021/03/15 20:16:30;;;;;;;4.88;2.53;;;;;;;3.16;67.94;97000.31;10203831;29;20051;-78
2021/03/15 20:21:50;;;;;;;4.20;2.65;;;;;;;3.04;67.87;96999.31;10203084;29;20050;-78
2021/03/15 20:27:10;;;;;;;4.72;2.80;;;;;;;2.98;68.65;97007.06;10222028;29;20067;-79
2021/03/15 20:32:30;;;;;;;5.18;2.60;;;;;;;2.97;68.27;97011.84;10162839;29;20056;-86
2021/03/15 20:37:50;;;;;;;5.75;2.85;;;;;;;2.92;68.24;97009.31;10159625;29;20052;-78
2021/03/15 20:43:10;;;;;;;5.55;2.60;;;;;;;2.85;69.39;97006.03;10149962;29;20052;-78
2021/03/15 20:48:30;;;;;;;5.20;2.90;;;;;;;2.78;69.28;97014.34;10136718;29;20055;-78
2021/03/15 20:53:50;;;;;;;5.25;2.50;;;;;;;2.79;69.08;97016.53;10180862;29;20054;-78
2021/03/15 20:59:11;;;;;;;7.07;3.00;;;;;;;2.83;69.16;97030.69;10198751;29;20503;-78
2021/03/15 21:04:31;;;;;;;5.60;2.65;;;;;;;2.84;69.28;97028.66;10258724;29;20050;-86
2021/03/15 21:09:51;;;;;;;5.28;1.98;;;;;;;2.91;69.48;97033.41;10256801;29;20052;-84
2021/03/15 21:21:36;;;;;;;4.70;2.30;;;;;;;3.14;69.15;97033.97;12039851;23;20796;31
2021/03/15 21:27:08;;;;;;;4.80;2.00;;;;;;;3.22;69.52;97035.97;11599962;23;20063;-78
2021/03/15 21:32:28;;;;;;;4.18;2.20;;;;;;;3.23;69.58;97037.41;10200692;29;20047;-77
2021/03/15 21:37:48;;;;;;;4.30;1.50;;;;;;;3.14;69.31;97031.22;10200708;29;20051;-78
2021/03/15 21:43:08;;;;;;;2.90;1.65;;;;;;;3.00;70.02;97035.56;10201022;29;20052;-77
2021/03/15 21:48:28;;;;;;;2.90;1.27;;;;;;;2.79;70.85;97029.59;10213723;29;20044;-77
2021/03/15 21:53:49;;;;;;;4.18;1.52;;;;;;;2.84;71.65;97023.88;10213692;29;20048;-79
2021/03/15 21:59:09;;;;;;;3.13;1.48;;;;;;;2.84;71.07;97028.66;10206013;29;20051;-80
2021/03/15 22:04:29;;;;;;;3.25;1.58;;;;;;;2.90;70.26;97028.44;10211109;29;20051;-80
2021/03/15 22:09:48;;;;;;;3.92;1.60;;;;;;;3.05;70.18;97037.34;10202191;29;20044;-80
2021/03/15 22:15:09;;;;;;;4.03;1.33;;;;;;;3.17;70.96;97032.84;10201968;29;20040;-81
2021/03/15 22:20:29;;;;;;;5.20;1.45;;;;;;;3.25;70.61;97040.34;10202378;29;20040;-80
2021/03/15 22:25:50;;;;;;;2.13;1.10;;;;;;;3.34;70.26;97048.72;10201984;29;20051;-81
2021/03/15 22:31:11;;;;;;;2.95;1.33;;;;;;;3.32;69.99;97050.59;10203615;29;20055;-81
2021/03/15 22:36:32;;;;;;;2.88;1.23;;;;;;;3.33;70.38;97057.56;10216009;29;20040;-81
2021/03/15 22:41:51;;;;;;;3.22;1.30;;;;;;;3.38;71.11;97059.41;10202091;29;20198;-80
2021/03/15 22:47:11;;;;;;;3.53;1.10;;;;;;;3.53;70.54;97062.03;10216551;29;20411;-81
2021/03/15 22:52:31;;;;;;;2.75;1.05;;;;;;;3.65;70.44;97065.78;10215944;29;20039;-81
2021/03/15 22:57:51;;;;;;;3.03;0.80;;;;;;;3.73;70.36;97074.75;10215809;29;20052;-80
2021/03/15 23:03:11;;;;;;;2.15;1.15;;;;;;;3.82;70.45;97080.94;10228882;29;20388;-81
2021/03/15 23:08:31;;;;;;;3.38;1.13;;;;;;;3.84;70.27;97078.34;10216772;29;20040;-81
2021/03/15 23:13:51;;;;;;;2.92;0.98;;;;;;;3.87;69.77;97091.03;10216231;29;20051;-81
2021/03/15 23:19:15;;;;;;;5.45;1.48;;;;;;;3.93;69.87;97102.56;10205358;29;20058;-81
2021/03/15 23:24:59;;;;;;;5.65;1.63;;;;;;;4.09;69.68;97112.19;10206576;29;20047;-80
2021/03/15 23:30:21;;;;;;;2.60;1.00;;;;;;;4.20;69.83;97114.47;10258571;29;20047;-81
2021/03/15 23:35:41;;;;;;;3.63;1.42;;;;;;;4.26;69.94;97128.06;10216697;29;20102;-81
2021/03/15 23:41:00;;;;;;;3.50;1.45;;;;;;;4.22;69.41;97122.19;10243418;29;20078;-81
2021/03/15 23:46:20;;;;;;;5.32;1.80;;;;;;;4.26;70.10;97128.78;10243548;29;20051;-81
2021/03/15 23:51:40;;;;;;;4.07;1.65;;;;;;;4.24;69.45;97134.13;10220067;29;20051;-81
2021/03/15 23:57:19;;;;;;;4.03;1.30;;;;;;;4.29;69.46;97129.66;10251125;28;20047;-80
